createdAt,value
2024-04-25T00:04:58.584Z,2.47
2024-04-25T00:10:00.452Z,2.33
2024-04-25T00:15:02.309Z,2.53
2024-04-25T00:20:05.671Z,3.08
2024-04-25T00:25:08.863Z,2.38
2024-04-25T00:30:11.000Z,2.10
2024-04-25T00:35:12.842Z,2.15
2024-04-25T00:40:14.699Z,2.22
2024-04-25T00:45:16.765Z,2.40
2024-04-25T00:50:19.811Z,2.30
2024-04-25T00:55:21.757Z,1.63
2024-04-25T01:00:25.074Z,1.75
2024-04-25T01:05:28.753Z,2.00
2024-04-25T01:10:30.628Z,2.08
2024-04-25T01:15:32.623Z,1.67
2024-04-25T01:20:36.367Z,1.67
2024-04-25T01:25:39.767Z,1.60
2024-04-25T01:30:41.972Z,1.65
2024-04-25T01:35:46.458Z,1.70
2024-04-25T01:40:48.324Z,2.00
2024-04-25T01:45:50.197Z,1.88
2024-04-25T01:50:52.015Z,1.70
2024-04-25T01:55:54.826Z,2.13
2024-04-25T02:00:56.827Z,1.83
2024-04-25T02:05:59.122Z,1.70
2024-04-25T02:11:01.056Z,2.13
2024-04-25T02:16:03.099Z,2.13
2024-04-25T02:21:23.686Z,2.10
2024-04-25T02:26:25.544Z,2.30
2024-04-25T02:31:33.043Z,1.85
2024-04-25T02:36:37.512Z,1.77
2024-04-25T02:41:39.393Z,1.70
2024-04-25T02:46:41.232Z,2.30
2024-04-25T02:51:43.151Z,2.10
2024-04-25T02:56:45.098Z,1.85
2024-04-25T03:01:46.929Z,2.08
2024-04-25T03:06:48.785Z,2.15
2024-04-25T03:11:50.667Z,2.40
2024-04-25T03:16:52.566Z,2.10
2024-04-25T03:21:54.420Z,2.15
2024-04-25T03:26:56.263Z,2.20
2024-04-25T03:31:58.112Z,2.03
2024-04-25T03:37:00.039Z,2.38
2024-04-25T03:42:03.312Z,2.22
2024-04-25T03:47:05.311Z,2.40
2024-04-25T03:52:07.369Z,2.60
2024-04-25T03:57:09.288Z,2.80
2024-04-25T04:02:11.160Z,2.30
2024-04-25T04:07:12.986Z,1.92
2024-04-25T04:12:15.746Z,2.58
2024-04-25T04:17:17.628Z,3.03
2024-04-25T04:22:19.447Z,2.45
2024-04-25T04:27:21.307Z,2.40
2024-04-25T04:32:25.110Z,2.70
2024-04-25T04:37:27.044Z,2.95
2024-04-25T04:42:29.347Z,3.05
2024-04-25T04:47:32.923Z,2.75
2024-04-25T04:52:35.492Z,3.20
2024-04-25T04:57:38.117Z,3.15
2024-04-25T05:02:40.591Z,3.17
2024-04-25T05:07:42.939Z,3.38
2024-04-25T05:12:44.956Z,2.75
2024-04-25T05:17:47.291Z,3.08
2024-04-25T05:22:49.731Z,2.75
2024-04-25T05:27:53.426Z,2.53
2024-04-25T05:32:55.890Z,2.00
2024-04-25T05:37:58.346Z,2.30
2024-04-25T05:43:00.816Z,2.33
2024-04-25T05:48:03.336Z,2.42
2024-04-25T05:53:06.163Z,2.10
2024-04-25T05:58:08.234Z,2.28
2024-04-25T06:03:10.546Z,2.15
2024-04-25T06:08:13.010Z,1.90
2024-04-25T06:13:15.323Z,2.92
2024-04-25T06:18:17.651Z,2.30
2024-04-25T06:23:19.660Z,2.17
2024-04-25T06:28:21.489Z,2.95
2024-04-25T06:33:23.386Z,2.42
2024-04-25T06:38:25.268Z,2.58
2024-04-25T06:43:27.141Z,2.92
2024-04-25T06:48:29.741Z,2.90
2024-04-25T06:53:32.179Z,2.88
2024-04-25T06:58:34.202Z,3.35
2024-04-25T07:03:36.052Z,3.63
2024-04-25T07:08:38.101Z,2.95
2024-04-25T07:13:39.951Z,3.03
2024-04-25T07:18:42.169Z,3.00
2024-04-25T07:23:44.054Z,3.20
2024-04-25T07:28:45.928Z,3.25
2024-04-25T07:33:47.915Z,3.20
2024-04-25T07:38:50.307Z,3.58
2024-04-25T07:43:52.189Z,3.53
2024-04-25T07:48:54.513Z,2.72
2024-04-25T07:53:56.426Z,3.28
2024-04-25T07:58:58.685Z,3.72
2024-04-25T08:04:01.305Z,3.85
2024-04-25T08:09:03.818Z,3.38
2024-04-25T08:14:05.658Z,2.92
2024-04-25T08:19:07.959Z,3.22
2024-04-25T08:24:09.856Z,3.50
2024-04-25T08:29:11.795Z,3.85
2024-04-25T08:34:14.595Z,4.72
2024-04-25T08:39:16.524Z,3.05
2024-04-25T08:44:18.540Z,4.22
2024-04-25T08:49:24.080Z,3.95
2024-04-25T08:54:25.925Z,3.50
2024-04-25T08:59:27.936Z,3.17
2024-04-25T09:04:31.154Z,2.40
2024-04-25T09:09:33.115Z,3.22
2024-04-25T09:14:34.988Z,2.72
2024-04-25T09:19:36.931Z,2.85
2024-04-25T09:24:38.748Z,2.85
2024-04-25T09:29:42.089Z,2.40
2024-04-25T09:34:44.007Z,2.30
2024-04-25T09:39:51.797Z,3.50
2024-04-25T09:45:00.820Z,3.13
2024-04-25T09:50:15.125Z,2.75
2024-04-25T09:55:22.644Z,2.38
2024-04-25T10:00:25.310Z,2.45
2024-04-25T10:05:27.943Z,1.48
2024-04-25T10:10:29.936Z,2.58
2024-04-25T10:15:33.105Z,2.40
2024-04-25T10:20:34.967Z,2.42
2024-04-25T10:25:36.922Z,3.63
2024-04-25T10:30:38.731Z,2.47
2024-04-25T10:35:40.965Z,2.33
2024-04-25T10:40:42.846Z,2.65
2024-04-25T10:45:44.826Z,2.10
2024-04-25T10:50:46.917Z,1.63
2024-04-25T10:55:49.002Z,1.58
2024-04-25T11:00:50.860Z,2.00
2024-04-25T11:05:52.812Z,1.52
2024-04-25T11:10:54.694Z,1.17
2024-04-25T11:15:57.668Z,1.30
2024-04-25T11:21:00.405Z,1.30
2024-04-25T11:26:03.896Z,0.98
2024-04-25T11:31:07.574Z,1.10
2024-04-25T11:36:09.611Z,1.00
2024-04-25T11:41:11.503Z,1.17
2024-04-25T11:46:13.686Z,1.10
2024-04-25T11:51:15.565Z,1.15
2024-04-25T11:56:17.536Z,1.00
2024-04-25T12:01:19.599Z,0.95
2024-04-25T12:06:24.345Z,0.90
2024-04-25T12:11:30.363Z,1.00
2024-04-25T12:16:32.304Z,1.08
2024-04-25T12:21:34.346Z,1.10
2024-04-25T12:26:37.278Z,0.90
2024-04-25T12:31:39.270Z,0.90
2024-04-25T12:36:41.086Z,0.63
2024-04-25T12:41:42.989Z,0.70
2024-04-25T12:46:44.917Z,0.70
2024-04-25T12:51:46.795Z,0.90
2024-04-25T12:56:48.684Z,0.77
2024-04-25T13:01:50.733Z,0.80
2024-04-25T13:06:52.597Z,0.82
2024-04-25T13:11:54.558Z,1.00
2024-04-25T13:16:56.411Z,0.57
2024-04-25T13:21:58.257Z,0.80
2024-04-25T13:27:03.125Z,0.63
2024-04-25T13:32:08.196Z,0.57
2024-04-25T13:37:10.778Z,0.60
2024-04-25T13:42:13.623Z,0.65
2024-04-25T13:47:15.686Z,1.05
2024-04-25T13:52:17.592Z,0.93
2024-04-25T13:57:19.444Z,0.70
2024-04-25T14:02:21.346Z,0.70
2024-04-25T14:07:23.248Z,1.10
2024-04-25T14:12:28.628Z,1.10
2024-04-25T14:17:31.580Z,1.38
2024-04-25T14:22:36.361Z,1.33
2024-04-25T14:27:56.681Z,1.50
2024-04-25T14:32:58.632Z,1.63
2024-04-25T14:38:00.757Z,1.45
2024-04-25T14:43:02.720Z,1.08
2024-04-25T14:48:04.816Z,1.67
2024-04-25T14:53:08.349Z,1.50
2024-04-25T14:58:10.484Z,1.38
2024-04-25T15:03:12.899Z,1.90
2024-04-25T15:08:17.094Z,2.17
2024-04-25T15:13:23.725Z,1.95
2024-04-25T15:18:26.577Z,2.53
2024-04-25T15:23:28.834Z,2.20
2024-04-25T15:28:32.900Z,2.28
2024-04-25T15:33:36.848Z,1.48
2024-04-25T15:38:39.186Z,1.27
2024-04-25T15:43:41.268Z,1.63
2024-04-25T15:48:43.687Z,0.93
2024-04-25T15:53:45.679Z,0.85
2024-04-25T15:58:48.318Z,0.88
2024-04-25T16:03:50.851Z,0.98
2024-04-25T16:08:52.953Z,0.70
2024-04-25T16:13:55.899Z,0.80
2024-04-25T16:18:58.223Z,1.10
2024-04-25T16:24:00.269Z,0.90
2024-04-25T16:29:02.373Z,4.00
2024-04-25T16:34:04.861Z,0.77
2024-04-25T16:39:07.273Z,1.00
2024-04-25T16:44:09.513Z,0.65
2024-04-25T16:49:12.876Z,0.90
2024-04-25T16:54:15.215Z,1.10
2024-04-25T16:59:17.553Z,1.20
2024-04-25T17:04:19.653Z,1.42
2024-04-25T17:09:27.686Z,0.88
2024-04-25T17:14:31.796Z,0.60
2024-04-25T17:19:33.883Z,0.90
2024-04-25T17:24:36.035Z,1.63
2024-04-25T17:29:41.847Z,1.55
2024-04-25T17:34:44.547Z,1.02
2024-04-25T17:39:47.653Z,1.58
2024-04-25T17:44:51.938Z,1.10
2024-04-25T17:49:53.928Z,0.80
2024-04-25T17:55:00.751Z,1.75
2024-04-25T18:00:03.313Z,1.80
2024-04-25T18:05:07.109Z,1.25
2024-04-25T18:10:09.795Z,0.80
2024-04-25T18:15:12.055Z,0.90
2024-04-25T18:20:14.702Z,0.90
2024-04-25T18:25:16.815Z,0.77
2024-04-25T18:30:18.724Z,1.20
2024-04-25T18:35:20.671Z,1.40
2024-04-25T18:40:22.626Z,0.70
2024-04-25T18:45:24.773Z,1.35
2024-04-25T18:50:26.594Z,1.08
2024-04-25T18:55:28.483Z,1.30
2024-04-25T19:00:30.767Z,1.30
2024-04-25T19:05:32.788Z,1.20
2024-04-25T19:10:34.691Z,0.75
2024-04-25T19:15:36.706Z,1.23
2024-04-25T19:20:39.069Z,0.77
2024-04-25T19:25:40.875Z,1.17
2024-04-25T19:30:42.821Z,1.20
2024-04-25T19:35:48.907Z,1.20
2024-04-25T19:40:50.950Z,1.27
2024-04-25T19:45:52.803Z,1.02
2024-04-25T19:50:54.803Z,1.40
2024-04-25T19:55:57.130Z,1.02
2024-04-25T20:00:58.966Z,1.02
2024-04-25T20:06:02.622Z,1.05
2024-04-25T20:11:04.685Z,0.90
2024-04-25T20:16:06.849Z,1.17
2024-04-25T20:21:09.459Z,0.90
2024-04-25T20:26:12.608Z,0.85
2024-04-25T20:31:16.242Z,0.77
2024-04-25T20:36:18.208Z,0.88
2024-04-25T20:41:22.033Z,0.77
2024-04-25T20:46:24.385Z,1.05
2024-04-25T20:51:26.821Z,1.27
2024-04-25T20:56:28.789Z,1.10
2024-04-25T21:01:30.640Z,1.30
2024-04-25T21:06:32.570Z,1.17
2024-04-25T21:11:34.857Z,1.10
2024-04-25T21:16:44.232Z,0.90
2024-04-25T21:21:48.848Z,1.08
2024-04-25T21:26:50.851Z,0.90
2024-04-25T21:31:55.629Z,1.00
2024-04-25T21:36:57.506Z,1.30
2024-04-25T21:41:59.338Z,1.13
2024-04-25T21:47:01.190Z,1.10
2024-04-25T21:52:03.109Z,1.40
2024-04-25T21:57:05.129Z,1.05
2024-04-25T22:02:07.037Z,0.95
2024-04-25T22:07:08.926Z,1.00
2024-04-25T22:12:13.102Z,1.15
2024-04-25T22:17:15.178Z,1.10
2024-04-25T22:22:17.102Z,1.17
2024-04-25T22:27:19.051Z,1.20
2024-04-25T22:32:20.982Z,1.00
2024-04-25T22:37:22.856Z,1.35
2024-04-25T22:42:24.665Z,1.10
2024-04-25T22:47:26.871Z,1.20
2024-04-25T22:52:28.771Z,1.55
2024-04-25T22:57:30.664Z,1.30
2024-04-25T23:02:32.536Z,1.42
2024-04-25T23:07:39.762Z,1.33
2024-04-25T23:12:41.786Z,1.67
2024-04-25T23:17:43.981Z,1.30
2024-04-25T23:22:46.048Z,1.55
2024-04-25T23:27:47.859Z,1.50
2024-04-25T23:32:49.955Z,1.40
2024-04-25T23:37:51.992Z,1.77
2024-04-25T23:42:53.789Z,1.50
2024-04-25T23:47:55.846Z,1.80
2024-04-25T23:52:57.687Z,1.52
2024-04-25T23:57:59.528Z,1.73
